Time;durP1;ratioP1;P1;durP2;ratioP2;P2;SDS_P1;SDS_P2;PMS_P1;PMS_P2;Temp;Humidity;BMP_temperature;BMP_pressure;BME280_temperature;BME280_humidity;BME280_pressure;Samples;Min_cycle;Max_cycle;Signal;HPM_P1;HPM_P2
2023/03/08 00:00:36;;;;;;;4.17;3.80;;;;;;;;;;5075582;28;20197;-92
2023/03/08 00:03:03;;;;;;;3.13;2.93;;;;;;;;;;5075460;28;20237;-93
2023/03/08 00:05:30;;;;;;;3.80;3.40;;;;;;;;;;5076057;28;20209;-93
2023/03/08 00:07:57;;;;;;;3.37;3.07;;;;;;;;;;5075178;28;20233;-93
2023/03/08 00:10:25;;;;;;;3.60;3.27;;;;;;;;;;5075498;28;20221;-93
2023/03/08 00:12:52;;;;;;;3.87;3.57;;;;;;;;;;5075338;28;20233;-93
2023/03/08 00:15:20;;;;;;;4.37;3.80;;;;;;;;;;5076061;28;20212;-93
2023/03/08 00:17:48;;;;;;;4.33;3.93;;;;;;;;;;5075534;28;20224;-93
2023/03/08 00:20:15;;;;;;;4.03;3.67;;;;;;;;;;5076574;28;20229;-93
2023/03/08 00:22:43;;;;;;;5.00;3.73;;;;;;;;;;5076612;28;20239;-91
2023/03/08 00:25:11;;;;;;;3.90;3.50;;;;;;;;;;5077007;28;20216;-92
2023/03/08 00:27:38;;;;;;;3.80;3.50;;;;;;;;;;5075497;28;20240;-92
2023/03/08 00:30:06;;;;;;;5.13;3.53;;;;;;;;;;5075770;28;20241;-93
2023/03/08 00:32:34;;;;;;;4.20;3.80;;;;;;;;;;5075020;28;20236;-92
2023/03/08 00:35:01;;;;;;;3.70;3.40;;;;;;;;;;5074788;28;20212;-93
2023/03/08 00:37:28;;;;;;;4.33;3.27;;;;;;;;;;5074433;28;20645;-93
2023/03/08 00:39:55;;;;;;;3.20;3.00;;;;;;;;;;5074645;28;20231;-93
2023/03/08 00:42:23;;;;;;;3.60;3.30;;;;;;;;;;5074563;28;20650;-93
2023/03/08 00:44:50;;;;;;;3.60;3.30;;;;;;;;;;5074481;28;20665;-92
2023/03/08 00:47:17;;;;;;;3.63;3.33;;;;;;;;;;5074151;28;20228;-93
2023/03/08 00:49:45;;;;;;;3.80;3.30;;;;;;;;;;5074921;28;20216;-93
2023/03/08 00:52:12;;;;;;;3.10;2.90;;;;;;;;;;5074566;28;20205;-92
2023/03/08 00:54:40;;;;;;;3.37;3.07;;;;;;;;;;5074976;28;20687;-92
2023/03/08 00:57:07;;;;;;;3.43;3.10;;;;;;;;;;5074788;28;20218;-92
2023/03/08 00:59:34;;;;;;;3.43;3.17;;;;;;;;;;5074326;28;20312;-93
2023/03/08 01:02:01;;;;;;;3.07;2.87;;;;;;;;;;5074765;28;20215;-93
2023/03/08 01:04:28;;;;;;;3.43;3.13;;;;;;;;;;5073391;28;20699;-93
2023/03/08 01:06:56;;;;;;;3.40;3.10;;;;;;;;;;5074933;28;20692;-93
2023/03/08 01:09:23;;;;;;;4.07;3.00;;;;;;;;;;5074276;28;20246;-93
2023/03/08 01:11:50;;;;;;;3.60;3.30;;;;;;;;;;5075014;28;20221;-93
2023/03/08 01:14:17;;;;;;;3.03;2.53;;;;;;;;;;5073885;28;20240;-93
2023/03/08 01:16:45;;;;;;;3.07;2.77;;;;;;;;;;5074392;28;20201;-93
2023/03/08 01:19:12;;;;;;;3.80;3.50;;;;;;;;;;5073969;28;20367;-92
2023/03/08 01:21:39;;;;;;;3.33;3.03;;;;;;;;;;5074355;28;20216;-92
2023/03/08 01:24:07;;;;;;;3.40;3.10;;;;;;;;;;5074176;28;20239;-93
2023/03/08 01:26:34;;;;;;;3.10;2.90;;;;;;;;;;5077620;28;20238;-93
2023/03/08 01:29:01;;;;;;;3.20;2.90;;;;;;;;;;5102000;22;20228;-84
2023/03/08 01:31:29;;;;;;;3.77;3.40;;;;;;;;;;5103367;28;20195;-84
2023/03/08 01:33:57;;;;;;;3.30;2.93;;;;;;;;;;5110517;28;20235;-84
2023/03/08 01:36:25;;;;;;;3.10;2.90;;;;;;;;;;5095008;28;20205;-84
2023/03/08 01:38:52;;;;;;;4.87;3.10;;;;;;;;;;5078354;28;20249;-84
2023/03/08 01:41:22;;;;;;;3.67;3.37;;;;;;;;;;5071820;28;20220;-84
2023/03/08 01:43:50;;;;;;;3.43;3.13;;;;;;;;;;5070734;28;20243;-84
2023/03/08 01:46:19;;;;;;;3.37;3.07;;;;;;;;;;5071247;28;20209;-84
2023/03/08 01:48:49;;;;;;;3.70;3.40;;;;;;;;;;5070352;28;20229;-84
2023/03/08 01:51:18;;;;;;;3.97;3.30;;;;;;;;;;5071531;28;20196;-84
2023/03/08 01:53:45;;;;;;;4.10;3.57;;;;;;;;;;5070670;28;20241;-84
2023/03/08 01:56:14;;;;;;;4.30;3.90;;;;;;;;;;5071702;28;20212;-84
2023/03/08 01:58:44;;;;;;;4.27;3.43;;;;;;;;;;5053632;28;20233;-84
2023/03/08 02:01:11;;;;;;;4.00;3.60;;;;;;;;;;5051313;28;20197;-84
2023/03/08 02:03:38;;;;;;;3.67;3.00;;;;;;;;;;5050569;28;20244;-84
2023/03/08 02:06:05;;;;;;;3.90;3.50;;;;;;;;;;5066667;28;20579;-84
2023/03/08 02:08:33;;;;;;;3.20;2.90;;;;;;;;;;5070070;28;20591;-84
2023/03/08 02:11:00;;;;;;;3.87;3.53;;;;;;;;;;5054991;28;20206;-84
2023/03/08 02:13:28;;;;;;;4.10;3.40;;;;;;;;;;5054057;28;20236;-84
2023/03/08 02:15:57;;;;;;;3.70;3.40;;;;;;;;;;5072830;28;20205;-84
2023/03/08 02:18:25;;;;;;;4.03;3.43;;;;;;;;;;5073948;28;20740;-84
2023/03/08 02:20:52;;;;;;;3.93;3.30;;;;;;;;;;5074999;28;20205;-84
2023/03/08 02:23:21;;;;;;;3.87;3.40;;;;;;;;;;5073995;28;20236;-84
2023/03/08 02:25:51;;;;;;;3.80;3.40;;;;;;;;;;5075054;28;20205;-84
2023/03/08 02:28:19;;;;;;;3.90;3.60;;;;;;;;;;5074151;28;20241;-83
2023/03/08 02:30:46;;;;;;;3.53;3.23;;;;;;;;;;5074703;28;20245;-84
2023/03/08 02:33:13;;;;;;;4.20;3.60;;;;;;;;;;5073889;28;20236;-84
2023/03/08 02:35:41;;;;;;;3.90;3.57;;;;;;;;;;5074602;28;20566;-84
2023/03/08 02:38:08;;;;;;;4.77;4.10;;;;;;;;;;5074330;28;20239;-84
2023/03/08 02:40:37;;;;;;;4.30;3.90;;;;;;;;;;5074747;28;20224;-84
2023/03/08 02:43:04;;;;;;;3.87;3.50;;;;;;;;;;5073761;28;20643;-84
2023/03/08 02:45:32;;;;;;;3.97;3.57;;;;;;;;;;5074425;28;20204;-83
2023/03/08 02:47:59;;;;;;;4.70;4.10;;;;;;;;;;5073972;28;20286;-84
2023/03/08 02:50:27;;;;;;;7.90;5.77;;;;;;;;;;5074643;28;20246;-84
2023/03/08 02:52:54;;;;;;;8.67;6.90;;;;;;;;;;5075096;28;20236;-85
2023/03/08 02:55:21;;;;;;;10.47;7.80;;;;;;;;;;5074324;28;20212;-84
2023/03/08 02:57:49;;;;;;;8.50;7.07;;;;;;;;;;5073911;28;20232;-84
2023/03/08 03:00:17;;;;;;;9.87;7.10;;;;;;;;;;5074179;28;20262;-84
2023/03/08 03:02:44;;;;;;;8.00;5.50;;;;;;;;;;5064162;28;20234;-85
2023/03/08 03:05:11;;;;;;;11.90;7.23;;;;;;;;;;5057737;28;20234;-84
2023/03/08 03:07:38;;;;;;;11.47;6.30;;;;;;;;;;5062682;28;20240;-85
2023/03/08 03:10:06;;;;;;;6.93;5.13;;;;;;;;;;5073819;28;20231;-84
2023/03/08 03:12:33;;;;;;;6.20;3.40;;;;;;;;;;5071441;28;20241;-85
2023/03/08 03:15:03;;;;;;;10.17;6.80;;;;;;;;;;5057236;28;20566;-84
2023/03/08 03:17:30;;;;;;;10.70;5.97;;;;;;;;;;5069218;28;20232;-84
2023/03/08 03:19:57;;;;;;;9.10;6.10;;;;;;;;;;5057469;28;20217;-84
2023/03/08 03:22:24;;;;;;;12.43;7.90;;;;;;;;;;5059045;28;20209;-84
2023/03/08 03:24:51;;;;;;;10.03;7.67;;;;;;;;;;5073077;28;20208;-83
2023/03/08 03:27:19;;;;;;;9.23;6.20;;;;;;;;;;5065254;28;20276;-85
2023/03/08 03:29:46;;;;;;;8.00;7.20;;;;;;;;;;5057399;28;20247;-84
2023/03/08 03:32:14;;;;;;;8.97;6.23;;;;;;;;;;5053012;28;20217;-85
2023/03/08 03:34:41;;;;;;;7.60;6.50;;;;;;;;;;5071845;28;20634;-84
2023/03/08 03:37:08;;;;;;;8.07;6.20;;;;;;;;;;5070467;28;20205;-85
2023/03/08 03:39:37;;;;;;;13.93;7.43;;;;;;;;;;5073403;28;20227;-84
2023/03/08 03:42:05;;;;;;;9.70;7.03;;;;;;;;;;5068256;28;20205;-84
2023/03/08 03:44:32;;;;;;;11.30;7.43;;;;;;;;;;5068780;28;20224;-84
2023/03/08 03:46:59;;;;;;;8.57;6.60;;;;;;;;;;5072338;28;20228;-85
2023/03/08 03:49:28;;;;;;;6.87;6.13;;;;;;;;;;5072654;28;20243;-84
2023/03/08 03:51:55;;;;;;;10.63;6.77;;;;;;;;;;5072850;28;20227;-84
2023/03/08 03:54:22;;;;;;;8.90;6.03;;;;;;;;;;5072389;28;20553;-84
2023/03/08 03:56:49;;;;;;;10.60;7.07;;;;;;;;;;5073033;28;20564;-84
2023/03/08 03:59:16;;;;;;;8.27;6.57;;;;;;;;;;5072470;28;20758;-84
2023/03/08 04:01:43;;;;;;;10.57;7.77;;;;;;;;;;5072475;28;20208;-84
2023/03/08 04:04:11;;;;;;;7.20;4.73;;;;;;;;;;5071663;28;20223;-84
2023/03/08 04:06:39;;;;;;;10.43;6.53;;;;;;;;;;5072257;28;20216;-84
2023/03/08 04:09:08;;;;;;;6.83;5.37;;;;;;;;;;5071974;28;20256;-84
2023/03/08 04:11:36;;;;;;;11.03;6.40;;;;;;;;;;5072740;28;20220;-84
2023/03/08 04:14:04;;;;;;;10.47;6.83;;;;;;;;;;5072135;28;20224;-84
2023/03/08 04:16:32;;;;;;;7.23;5.50;;;;;;;;;;5072544;28;20212;-84
2023/03/08 04:19:00;;;;;;;11.50;7.80;;;;;;;;;;5072010;28;20244;-85
2023/03/08 04:21:28;;;;;;;7.63;6.17;;;;;;;;;;5072366;28;20296;-85
2023/03/08 04:23:56;;;;;;;9.47;6.83;;;;;;;;;;5072126;28;20240;-85
2023/03/08 04:26:24;;;;;;;12.67;7.17;;;;;;;;;;5072663;28;20224;-85
2023/03/08 04:28:51;;;;;;;8.87;6.13;;;;;;;;;;5071559;28;20604;-85
2023/03/08 04:31:20;;;;;;;10.33;7.00;;;;;;;;;;5072138;28;20207;-85
2023/03/08 04:33:47;;;;;;;9.47;6.57;;;;;;;;;;5071794;28;20239;-85
2023/03/08 04:36:15;;;;;;;11.97;7.27;;;;;;;;;;5072214;28;20669;-85
2023/03/08 04:38:42;;;;;;;11.73;7.77;;;;;;;;;;5070833;28;20577;-84
2023/03/08 04:41:11;;;;;;;11.13;7.40;;;;;;;;;;5072087;28;20212;-85
2023/03/08 04:43:39;;;;;;;12.30;6.53;;;;;;;;;;5071831;28;20267;-84
2023/03/08 04:46:06;;;;;;;10.93;7.37;;;;;;;;;;5072397;28;20207;-85
2023/03/08 04:48:33;;;;;;;7.37;5.77;;;;;;;;;;5071674;28;20246;-85
2023/03/08 04:51:01;;;;;;;11.47;6.53;;;;;;;;;;5072096;28;20209;-86
2023/03/08 04:53:29;;;;;;;7.97;6.40;;;;;;;;;;5071508;28;20247;-86
2023/03/08 04:55:58;;;;;;;10.77;7.77;;;;;;;;;;5072188;28;20213;-86
2023/03/08 04:58:26;;;;;;;9.63;6.40;;;;;;;;;;5071677;28;20412;-86
2023/03/08 05:00:53;;;;;;;10.10;7.63;;;;;;;;;;5071882;28;20209;-86
2023/03/08 05:03:21;;;;;;;9.17;7.03;;;;;;;;;;5071330;28;20736;-86
2023/03/08 05:05:48;;;;;;;9.90;7.07;;;;;;;;;;5071845;28;20275;-86
2023/03/08 05:08:15;;;;;;;13.57;7.17;;;;;;;;;;5071340;28;20236;-86
2023/03/08 05:10:47;;;;;;;15.80;7.47;;;;;;;;;;5072044;28;20220;-85
2023/03/08 05:13:14;;;;;;;15.57;8.43;;;;;;;;;;5071114;28;20258;-85
2023/03/08 05:15:43;;;;;;;9.63;5.93;;;;;;;;;;5071657;28;20232;-85
2023/03/08 05:18:10;;;;;;;6.23;4.60;;;;;;;;;;5071233;28;20228;-85
2023/03/08 05:20:37;;;;;;;8.60;6.27;;;;;;;;;;5071800;28;20322;-84
2023/03/08 05:23:04;;;;;;;10.00;6.37;;;;;;;;;;5071332;28;20229;-85
2023/03/08 05:25:32;;;;;;;10.50;6.73;;;;;;;;;;5071578;28;20207;-85
2023/03/08 05:27:59;;;;;;;8.20;6.50;;;;;;;;;;5071136;28;20245;-84
2023/03/08 05:30:26;;;;;;;9.33;6.97;;;;;;;;;;5071231;28;20231;-83
2023/03/08 05:32:55;;;;;;;9.90;6.77;;;;;;;;;;5071221;28;20228;-84
2023/03/08 05:35:22;;;;;;;8.63;6.53;;;;;;;;;;5071584;28;20205;-84
2023/03/08 05:37:50;;;;;;;9.57;6.90;;;;;;;;;;5071376;28;20224;-84
2023/03/08 05:40:17;;;;;;;8.67;6.30;;;;;;;;;;5071626;28;20319;-84
2023/03/08 05:42:44;;;;;;;9.17;6.50;;;;;;;;;;5071079;28;20236;-84
2023/03/08 05:45:11;;;;;;;9.10;6.43;;;;;;;;;;5071730;28;20203;-84
2023/03/08 05:47:38;;;;;;;10.37;7.20;;;;;;;;;;5071409;28;20240;-84
2023/03/08 05:50:07;;;;;;;8.50;6.93;;;;;;;;;;5073511;28;20596;-83
2023/03/08 05:52:34;;;;;;;10.70;6.93;;;;;;;;;;5074809;28;20248;-84
2023/03/08 05:55:02;;;;;;;10.07;7.00;;;;;;;;;;5075583;28;20205;-84
2023/03/08 05:57:29;;;;;;;10.40;7.37;;;;;;;;;;5074836;28;20358;-85
2023/03/08 05:59:56;;;;;;;11.13;6.83;;;;;;;;;;5075349;28;20309;-84
2023/03/08 06:02:23;;;;;;;8.50;7.00;;;;;;;;;;5074594;28;20219;-84
2023/03/08 06:04:50;;;;;;;8.20;5.63;;;;;;;;;;5075278;28;20305;-85
2023/03/08 06:07:19;;;;;;;9.17;7.20;;;;;;;;;;5074683;28;20213;-84
2023/03/08 06:09:46;;;;;;;9.87;6.17;;;;;;;;;;5074969;28;20244;-83
2023/03/08 06:12:13;;;;;;;8.63;5.67;;;;;;;;;;5074433;28;20285;-83
2023/03/08 06:14:40;;;;;;;6.70;5.43;;;;;;;;;;5074449;28;20231;-83
2023/03/08 06:17:07;;;;;;;8.77;5.97;;;;;;;;;;5054449;28;20217;-85
2023/03/08 06:19:34;;;;;;;7.00;5.77;;;;;;;;;;5061342;28;20232;-83
2023/03/08 06:22:02;;;;;;;7.13;6.33;;;;;;;;;;5076398;28;20208;-84
2023/03/08 06:24:30;;;;;;;9.73;5.47;;;;;;;;;;5069055;28;20240;-84
2023/03/08 06:26:58;;;;;;;9.10;6.73;;;;;;;;;;5068408;28;20233;-83
2023/03/08 06:29:25;;;;;;;7.93;6.20;;;;;;;;;;5085500;28;20227;-83
2023/03/08 06:31:52;;;;;;;5.40;4.90;;;;;;;;;;5081643;28;20211;-83
2023/03/08 06:34:20;;;;;;;10.43;7.37;;;;;;;;;;5076246;28;20742;-84
2023/03/08 06:36:47;;;;;;;8.83;6.83;;;;;;;;;;5073105;28;20685;-84
2023/03/08 06:39:14;;;;;;;11.83;7.53;;;;;;;;;;5068357;28;20231;-84
2023/03/08 06:41:43;;;;;;;11.73;7.43;;;;;;;;;;5071385;28;20233;-83
2023/03/08 06:44:10;;;;;;;15.97;8.30;;;;;;;;;;5071180;28;20227;-85
2023/03/08 06:46:37;;;;;;;11.77;7.13;;;;;;;;;;5075766;28;20212;-83
2023/03/08 06:49:06;;;;;;;11.70;8.03;;;;;;;;;;5082409;28;20222;-84
2023/03/08 06:51:34;;;;;;;10.37;7.50;;;;;;;;;;5069380;28;20232;-84
2023/03/08 06:54:01;;;;;;;12.37;8.60;;;;;;;;;;5073408;28;20716;-84
2023/03/08 06:56:28;;;;;;;11.10;8.20;;;;;;;;;;5073683;28;20691;-83
2023/03/08 06:58:56;;;;;;;10.30;7.23;;;;;;;;;;5073336;28;20241;-83
2023/03/08 07:01:23;;;;;;;14.80;7.13;;;;;;;;;;5072372;28;20299;-83
2023/03/08 07:03:51;;;;;;;14.60;8.27;;;;;;;;;;5073287;28;20235;-82
2023/03/08 07:06:18;;;;;;;13.90;8.17;;;;;;;;;;5073787;28;20215;-83
2023/03/08 07:08:45;;;;;;;10.00;7.87;;;;;;;;;;5073110;28;20233;-82
2023/03/08 07:11:12;;;;;;;14.93;8.23;;;;;;;;;;5073641;28;20213;-83
2023/03/08 07:13:40;;;;;;;14.07;7.80;;;;;;;;;;5072910;28;20239;-83
2023/03/08 07:16:09;;;;;;;13.80;7.93;;;;;;;;;;5073374;28;20676;-84
2023/03/08 07:18:36;;;;;;;12.53;8.33;;;;;;;;;;5071520;28;20251;-84
2023/03/08 07:21:04;;;;;;;11.33;7.60;;;;;;;;;;5072965;28;20661;-83
2023/03/08 07:23:31;;;;;;;14.93;8.77;;;;;;;;;;5072973;28;20241;-84
2023/03/08 07:25:58;;;;;;;11.97;8.13;;;;;;;;;;5073383;28;20214;-83
2023/03/08 07:28:25;;;;;;;12.80;8.20;;;;;;;;;;5073070;28;20248;-84
2023/03/08 07:30:54;;;;;;;11.17;6.90;;;;;;;;;;5112738;22;20275;-85
2023/03/08 07:33:22;;;;;;;12.73;8.33;;;;;;;;;;5092704;28;20240;-85
2023/03/08 07:35:49;;;;;;;10.90;7.70;;;;;;;;;;5093532;28;20206;-86
2023/03/08 07:38:17;;;;;;;10.40;7.47;;;;;;;;;;5092964;28;20788;-85
2023/03/08 07:40:44;;;;;;;13.20;8.37;;;;;;;;;;5090796;28;20235;-86
2023/03/08 07:43:11;;;;;;;9.13;6.67;;;;;;;;;;5072550;28;20581;-85
2023/03/08 07:45:40;;;;;;;6.13;5.27;;;;;;;;;;5073313;28;20206;-85
2023/03/08 07:48:07;;;;;;;10.07;7.60;;;;;;;;;;5072537;28;20607;-85
2023/03/08 07:50:35;;;;;;;9.30;7.30;;;;;;;;;;5072787;28;20232;-85
2023/03/08 07:53:03;;;;;;;11.13;7.97;;;;;;;;;;5072155;28;20231;-85
2023/03/08 07:55:30;;;;;;;11.53;7.70;;;;;;;;;;5072969;28;20255;-85
2023/03/08 07:57:57;;;;;;;11.03;6.90;;;;;;;;;;5072596;28;20232;-85
2023/03/08 08:00:25;;;;;;;8.77;7.00;;;;;;;;;;5072958;28;20225;-85
2023/03/08 08:02:52;;;;;;;15.93;11.37;;;;;;;;;;5071905;28;20263;-84
2023/03/08 08:05:21;;;;;;;35.83;21.47;;;;;;;;;;5073009;28;20310;-85
2023/03/08 08:07:50;;;;;;;12.70;8.33;;;;;;;;;;5072041;28;20259;-85
2023/03/08 08:10:17;;;;;;;16.70;9.47;;;;;;;;;;5072510;28;20262;-85
2023/03/08 08:12:44;;;;;;;9.57;7.30;;;;;;;;;;5071825;28;20238;-85
2023/03/08 08:15:11;;;;;;;10.17;7.53;;;;;;;;;;5072634;28;20290;-85
2023/03/08 08:17:39;;;;;;;9.23;6.97;;;;;;;;;;5072304;28;20236;-85
2023/03/08 08:20:07;;;;;;;11.00;7.37;;;;;;;;;;5072544;28;20230;-85
2023/03/08 08:22:35;;;;;;;13.27;6.83;;;;;;;;;;5071905;28;20692;-86
2023/03/08 08:25:05;;;;;;;11.53;8.07;;;;;;;;;;5072289;28;20197;-85
2023/03/08 08:27:32;;;;;;;11.10;8.43;;;;;;;;;;5072155;28;20255;-86
2023/03/08 08:29:59;;;;;;;13.63;8.47;;;;;;;;;;5071982;28;20587;-85
2023/03/08 08:32:26;;;;;;;13.07;7.97;;;;;;;;;;5071497;28;20989;-85
2023/03/08 08:34:53;;;;;;;10.23;6.63;;;;;;;;;;5072334;28;20205;-85
2023/03/08 08:37:20;;;;;;;10.63;7.37;;;;;;;;;;5071825;28;20210;-85
2023/03/08 08:39:47;;;;;;;6.73;5.30;;;;;;;;;;5072048;28;20224;-86
2023/03/08 08:42:16;;;;;;;11.23;7.90;;;;;;;;;;5071522;28;20209;-85
2023/03/08 08:44:43;;;;;;;11.73;7.67;;;;;;;;;;5072176;28;20208;-85
2023/03/08 08:47:10;;;;;;;11.93;7.80;;;;;;;;;;5071429;28;20198;-84
2023/03/08 08:49:37;;;;;;;15.07;8.70;;;;;;;;;;5071745;28;20236;-85
2023/03/08 08:52:04;;;;;;;11.07;7.60;;;;;;;;;;5071720;28;20205;-85
2023/03/08 08:54:32;;;;;;;14.27;8.40;;;;;;;;;;5058759;28;20242;-86
2023/03/08 08:56:59;;;;;;;10.47;8.13;;;;;;;;;;5051993;28;20253;-85
2023/03/08 08:59:28;;;;;;;11.60;8.40;;;;;;;;;;5051595;28;20252;-85
2023/03/08 09:01:55;;;;;;;14.57;9.50;;;;;;;;;;5056511;28;20201;-85
2023/03/08 09:04:22;;;;;;;14.17;9.07;;;;;;;;;;5070845;28;20233;-85
2023/03/08 09:06:49;;;;;;;13.93;9.47;;;;;;;;;;5071114;28;20697;-85
2023/03/08 09:09:18;;;;;;;13.93;9.10;;;;;;;;;;5070398;28;20781;-85
2023/03/08 09:11:46;;;;;;;15.83;10.90;;;;;;;;;;5071292;28;20587;-86
2023/03/08 09:14:13;;;;;;;12.47;9.47;;;;;;;;;;5071063;28;20725;-85
2023/03/08 09:16:42;;;;;;;14.30;11.10;;;;;;;;;;5071628;28;20213;-85
2023/03/08 09:19:09;;;;;;;15.20;11.30;;;;;;;;;;5071136;28;20236;-85
2023/03/08 09:21:36;;;;;;;16.17;11.33;;;;;;;;;;5071146;28;20208;-85
2023/03/08 09:24:05;;;;;;;18.30;12.20;;;;;;;;;;5070702;28;20319;-86
2023/03/08 09:26:32;;;;;;;15.90;11.57;;;;;;;;;;5071671;28;20213;-86
2023/03/08 09:29:03;;;;;;;16.37;10.37;;;;;;;;;;5070841;28;20240;-85
2023/03/08 09:31:31;;;;;;;15.97;10.17;;;;;;;;;;5071396;28;20204;-85
2023/03/08 09:33:59;;;;;;;14.03;10.53;;;;;;;;;;5070304;28;20342;-85
2023/03/08 09:36:28;;;;;;;16.43;10.93;;;;;;;;;;5071287;28;20556;-86
2023/03/08 09:38:55;;;;;;;13.30;8.07;;;;;;;;;;5070804;28;20264;-86
2023/03/08 09:41:35;;;;;;;13.30;10.43;;;;;;;;;;5071391;28;20213;-86
2023/03/08 09:44:13;;;;;;;13.30;10.20;;;;;;;;;;5066417;28;20232;-86
2023/03/08 09:46:44;;;;;;;16.10;10.17;;;;;;;;;;5051443;28;20213;-86
2023/03/08 09:49:14;;;;;;;13.83;9.97;;;;;;;;;;5050470;28;20233;-86
2023/03/08 09:51:45;;;;;;;6.80;5.27;;;;;;;;;;5051657;28;20211;-86
2023/03/08 09:54:14;;;;;;;13.73;9.10;;;;;;;;;;5069470;28;20229;-87
2023/03/08 09:56:43;;;;;;;17.87;11.37;;;;;;;;;;5071510;28;20567;-85
2023/03/08 09:59:13;;;;;;;21.60;11.63;;;;;;;;;;5071723;28;20313;-85
2023/03/08 10:01:46;;;;;;;11.73;8.33;;;;;;;;;;5072495;28;20198;-85
2023/03/08 10:04:25;;;;;;;10.47;8.10;;;;;;;;;;5070532;28;20229;-86
2023/03/08 10:06:57;;;;;;;12.30;8.47;;;;;;;;;;5071851;28;20189;-85
2023/03/08 10:09:28;;;;;;;10.33;7.67;;;;;;;;;;5070426;28;20233;-85
2023/03/08 10:11:58;;;;;;;11.13;7.67;;;;;;;;;;5071197;28;20220;-85
2023/03/08 10:14:29;;;;;;;10.13;7.67;;;;;;;;;;5070209;28;20308;-85
2023/03/08 10:16:58;;;;;;;7.87;6.37;;;;;;;;;;5070711;28;20209;-85
2023/03/08 10:19:29;;;;;;;6.67;4.53;;;;;;;;;;5070408;28;20247;-85
2023/03/08 10:21:57;;;;;;;9.13;7.57;;;;;;;;;;5070773;28;20191;-85
2023/03/08 10:24:26;;;;;;;7.17;6.10;;;;;;;;;;5070215;28;20600;-85
2023/03/08 10:26:54;;;;;;;4.27;3.77;;;;;;;;;;5070985;28;20202;-86
2023/03/08 10:29:21;;;;;;;9.93;7.77;;;;;;;;;;5070059;28;20730;-85
2023/03/08 10:31:49;;;;;;;9.23;6.83;;;;;;;;;;5070650;28;20656;-85
2023/03/08 10:34:16;;;;;;;9.93;6.77;;;;;;;;;;5070304;28;20237;-85
2023/03/08 10:36:49;;;;;;;9.37;6.70;;;;;;;;;;5071761;28;20210;-85
2023/03/08 10:39:17;;;;;;;9.63;7.00;;;;;;;;;;5073952;28;20251;-86
2023/03/08 10:41:45;;;;;;;9.90;7.00;;;;;;;;;;5074137;28;20198;-85
2023/03/08 10:44:16;;;;;;;10.80;8.17;;;;;;;;;;5073509;28;20234;-85
2023/03/08 10:46:47;;;;;;;9.67;7.17;;;;;;;;;;5074062;28;20665;-85
2023/03/08 10:49:17;;;;;;;9.73;7.33;;;;;;;;;;5073331;28;20643;-85
2023/03/08 10:51:53;;;;;;;10.53;7.50;;;;;;;;;;5073486;28;20209;-86
2023/03/08 10:54:21;;;;;;;26.43;8.53;;;;;;;;;;5072999;28;20238;-85
2023/03/08 10:56:52;;;;;;;44.87;9.77;;;;;;;;;;5073891;28;20223;-85
2023/03/08 10:59:26;;;;;;;14.67;7.07;;;;;;;;;;5073331;28;20242;-85
2023/03/08 11:01:54;;;;;;;5.83;5.00;;;;;;;;;;5073899;28;20627;-85
2023/03/08 11:04:22;;;;;;;6.73;5.27;;;;;;;;;;5072555;28;20245;-86
2023/03/08 11:06:49;;;;;;;14.90;6.07;;;;;;;;;;5073722;28;20885;-86
2023/03/08 11:09:22;;;;;;;6.60;5.17;;;;;;;;;;5072640;28;20254;-86
2023/03/08 11:11:50;;;;;;;5.60;5.10;;;;;;;;;;5073916;28;20742;-86
2023/03/08 11:14:17;;;;;;;7.77;5.73;;;;;;;;;;5073362;28;20236;-86
2023/03/08 11:16:54;;;;;;;3.70;3.30;;;;;;;;;;5073762;28;20567;-86
2023/03/08 11:19:31;;;;;;;8.53;5.07;;;;;;;;;;5074946;28;20240;-86
2023/03/08 11:22:02;;;;;;;6.40;5.57;;;;;;;;;;5073557;28;20189;-90
2023/03/08 11:24:35;;;;;;;4.77;4.27;;;;;;;;;;5073004;28;20727;-85
2023/03/08 11:27:12;;;;;;;5.87;4.70;;;;;;;;;;5073629;28;20201;-85
2023/03/08 11:29:46;;;;;;;4.80;4.40;;;;;;;;;;5073296;28;20242;-86
2023/03/08 11:32:18;;;;;;;5.70;5.10;;;;;;;;;;5072982;28;20191;-87
2023/03/08 11:34:53;;;;;;;7.23;5.20;;;;;;;;;;5073595;28;20186;-87
2023/03/08 11:37:26;;;;;;;5.90;5.40;;;;;;;;;;5072979;28;20204;-87
2023/03/08 11:40:04;;;;;;;6.87;5.77;;;;;;;;;;5073408;28;20223;-86
2023/03/08 11:42:34;;;;;;;7.93;5.73;;;;;;;;;;5072877;28;20253;-86
2023/03/08 11:45:12;;;;;;;6.90;5.60;;;;;;;;;;5073221;28;20583;-87
2023/03/08 11:47:56;;;;;;;5.43;4.87;;;;;;;;;;5072292;28;20233;-87
2023/03/08 11:50:25;;;;;;;6.03;5.43;;;;;;;;;;5073278;28;20240;-87
2023/03/08 11:53:00;;;;;;;8.27;5.40;;;;;;;;;;5072441;28;20649;-86
2023/03/08 11:55:43;;;;;;;5.53;5.03;;;;;;;;;;5059623;28;20215;-87
2023/03/08 11:58:12;;;;;;;7.07;5.37;;;;;;;;;;5064984;28;20230;-86
2023/03/08 12:00:40;;;;;;;7.80;5.80;;;;;;;;;;5073117;28;20222;-87
2023/03/08 12:03:12;;;;;;;18.13;10.20;;;;;;;;;;5072296;28;20631;-87
2023/03/08 12:05:41;;;;;;;11.57;7.53;;;;;;;;;;5070018;28;20210;-88
2023/03/08 12:08:13;;;;;;;16.00;9.07;;;;;;;;;;5071826;28;20234;-88
2023/03/08 12:10:43;;;;;;;27.67;14.80;;;;;;;;;;5072581;28;20652;-88
2023/03/08 12:13:15;;;;;;;13.63;10.07;;;;;;;;;;5071837;28;20239;-88
2023/03/08 12:15:45;;;;;;;15.43;10.23;;;;;;;;;;5071394;28;20217;-88
2023/03/08 12:18:15;;;;;;;19.17;11.30;;;;;;;;;;5072194;28;20243;-88
2023/03/08 12:20:43;;;;;;;9.00;6.80;;;;;;;;;;5072798;28;20231;-88
2023/03/08 12:23:14;;;;;;;8.03;6.37;;;;;;;;;;5062380;28;20241;-88
2023/03/08 12:25:45;;;;;;;9.80;7.70;;;;;;;;;;5052434;28;20212;-88
2023/03/08 12:28:16;;;;;;;9.57;8.30;;;;;;;;;;5071618;28;20876;-88
2023/03/08 12:30:48;;;;;;;9.67;7.50;;;;;;;;;;5072242;28;20229;-88
2023/03/08 12:33:16;;;;;;;11.53;8.10;;;;;;;;;;5071408;28;20243;-88
2023/03/08 12:35:53;;;;;;;9.93;8.00;;;;;;;;;;5071990;28;20854;-88
2023/03/08 12:38:32;;;;;;;11.77;8.30;;;;;;;;;;5051697;28;20240;-87
2023/03/08 12:41:01;;;;;;;8.93;7.93;;;;;;;;;;5052065;28;20226;-87
2023/03/08 12:43:29;;;;;;;11.97;9.87;;;;;;;;;;5063669;28;20320;-87
2023/03/08 12:46:02;;;;;;;11.00;8.67;;;;;;;;;;5072247;28;20197;-88
2023/03/08 12:48:30;;;;;;;11.50;8.83;;;;;;;;;;5051500;28;20752;-89
2023/03/08 12:51:00;;;;;;;10.03;7.87;;;;;;;;;;5065185;28;20286;-89
2023/03/08 12:53:32;;;;;;;11.00;8.83;;;;;;;;;;5070293;28;20260;-90
2023/03/08 12:56:02;;;;;;;14.17;10.13;;;;;;;;;;5073002;28;20193;-88
2023/03/08 12:58:30;;;;;;;16.47;11.97;;;;;;;;;;5062837;28;20952;-89
2023/03/08 13:00:59;;;;;;;18.50;12.00;;;;;;;;;;5072700;28;20248;-87
2023/03/08 13:03:28;;;;;;;18.97;13.67;;;;;;;;;;5068654;28;20239;-87
2023/03/08 13:05:55;;;;;;;17.33;12.53;;;;;;;;;;5052914;28;20205;-87
2023/03/08 13:08:32;;;;;;;19.53;12.80;;;;;;;;;;5069647;28;20240;-87
2023/03/08 13:11:06;;;;;;;17.17;12.07;;;;;;;;;;5071636;28;20228;-88
2023/03/08 13:13:39;;;;;;;19.93;13.27;;;;;;;;;;5071321;28;20289;-86
2023/03/08 13:16:08;;;;;;;15.63;13.10;;;;;;;;;;5063962;28;20206;-86
2023/03/08 13:18:37;;;;;;;17.23;12.20;;;;;;;;;;5069659;28;20241;-87
2023/03/08 13:21:15;;;;;;;17.37;13.00;;;;;;;;;;5072300;28;20224;-87
2023/03/08 13:23:47;;;;;;;18.23;12.30;;;;;;;;;;5079072;28;20260;-88
2023/03/08 13:26:19;;;;;;;26.13;14.63;;;;;;;;;;5072954;28;20203;-88
2023/03/08 13:28:47;;;;;;;21.57;14.37;;;;;;;;;;5071690;28;20237;-88
2023/03/08 13:31:14;;;;;;;25.60;14.63;;;;;;;;;;5096662;22;20707;-82
2023/03/08 13:33:43;;;;;;;25.53;15.07;;;;;;;;;;5091451;28;20235;-83
2023/03/08 13:36:15;;;;;;;23.80;15.20;;;;;;;;;;5092439;28;20191;-83
2023/03/08 13:38:42;;;;;;;20.90;13.27;;;;;;;;;;5091366;28;20239;-83
2023/03/08 13:41:09;;;;;;;21.57;14.87;;;;;;;;;;5092107;28;20235;-83
2023/03/08 13:43:38;;;;;;;21.83;15.37;;;;;;;;;;5091692;28;20299;-84
2023/03/08 13:46:06;;;;;;;28.70;16.67;;;;;;;;;;5092172;28;20243;-83
2023/03/08 13:48:35;;;;;;;27.27;18.20;;;;;;;;;;5091408;28;20232;-83
2023/03/08 13:51:02;;;;;;;25.83;17.00;;;;;;;;;;5091569;28;20879;-84
2023/03/08 13:53:31;;;;;;;24.30;15.83;;;;;;;;;;5091426;28;20353;-83
2023/03/08 13:55:59;;;;;;;23.80;15.23;;;;;;;;;;5092632;28;20185;-84
2023/03/08 13:58:29;;;;;;;30.37;17.07;;;;;;;;;;5091093;28;20235;-84
2023/03/08 14:01:05;;;;;;;26.53;17.13;;;;;;;;;;5092007;28;20223;-84
2023/03/08 14:03:33;;;;;;;27.53;16.63;;;;;;;;;;5088176;28;20240;-83
2023/03/08 14:06:01;;;;;;;27.73;16.57;;;;;;;;;;5091991;28;20660;-83
2023/03/08 14:08:28;;;;;;;24.60;15.97;;;;;;;;;;5091390;28;20255;-87
2023/03/08 14:10:59;;;;;;;30.73;17.17;;;;;;;;;;5093383;28;20243;-83
2023/03/08 14:13:28;;;;;;;30.57;19.10;;;;;;;;;;5095287;28;20612;-84
2023/03/08 14:15:56;;;;;;;32.37;21.30;;;;;;;;;;5095728;28;20205;-84
2023/03/08 14:18:26;;;;;;;35.00;20.20;;;;;;;;;;5095319;28;20233;-85
2023/03/08 14:21:07;;;;;;;32.53;20.87;;;;;;;;;;5095435;28;20229;-83
2023/03/08 14:23:36;;;;;;;37.47;20.47;;;;;;;;;;5094975;28;20232;-83
2023/03/08 14:26:03;;;;;;;35.03;20.80;;;;;;;;;;5095142;28;20216;-83
2023/03/08 14:28:38;;;;;;;26.87;14.23;;;;;;;;;;5094950;28;20232;-84
2023/03/08 14:31:20;;;;;;;19.20;13.27;;;;;;;;;;5094672;28;20235;-83
2023/03/08 14:33:54;;;;;;;8.97;7.47;;;;;;;;;;5094366;28;20232;-83
2023/03/08 14:36:21;;;;;;;10.30;7.90;;;;;;;;;;5082856;28;20193;-83
2023/03/08 14:38:49;;;;;;;16.87;9.90;;;;;;;;;;5074222;28;20236;-83
2023/03/08 14:41:16;;;;;;;4.63;4.23;;;;;;;;;;5074342;28;20225;-83